sensor_id;sensor_type;location;lat;lon;timestamp;pressure;altitude;pressure_sealevel;temperature;humidity
84492;BME280;74718;40.778;21.400;2024-03-23T00:54:03;93983.48;;;4.18;57.55
84492;BME280;74718;40.778;21.400;2024-03-23T00:56:29;93983.67;;;4.20;57.09
84492;BME280;74718;40.778;21.400;2024-03-23T00:58:54;93982.23;;;4.24;57.17
84492;BME280;74718;40.778;21.400;2024-03-23T01:01:20;93984.45;;;4.26;57.08
84492;BME280;74718;40.778;21.400;2024-03-23T01:03:46;93982.35;;;4.26;56.76
84492;BME280;74718;40.778;21.400;2024-03-23T01:06:12;93982.73;;;4.29;56.83
84492;BME280;74718;40.778;21.400;2024-03-23T01:08:37;93981.96;;;4.33;56.61
84492;BME280;74718;40.778;21.400;2024-03-23T01:11:03;93982.78;;;4.36;56.60
84492;BME280;74718;40.778;21.400;2024-03-23T01:13:29;93981.09;;;4.38;56.59
84492;BME280;74718;40.778;21.400;2024-03-23T01:15:56;93983.58;;;4.41;56.36
84492;BME280;74718;40.778;21.400;2024-03-23T01:18:22;93985.48;;;4.43;56.07
84492;BME280;74718;40.778;21.400;2024-03-23T01:20:48;93986.48;;;4.40;56.36
84492;BME280;74718;40.778;21.400;2024-03-23T01:23:14;93985.70;;;4.31;56.69
84492;BME280;74718;40.778;21.400;2024-03-23T01:25:41;93984.36;;;4.12;57.42
84492;BME280;74718;40.778;21.400;2024-03-23T01:28:06;93990.68;;;3.95;57.45
84492;BME280;74718;40.778;21.400;2024-03-23T01:30:33;93984.64;;;3.85;57.09
84492;BME280;74718;40.778;21.400;2024-03-23T01:32:59;93983.20;;;3.83;57.33
84492;BME280;74718;40.778;21.400;2024-03-23T01:35:24;93980.45;;;3.84;57.59
84492;BME280;74718;40.778;21.400;2024-03-23T01:37:49;93979.94;;;3.82;57.98
84492;BME280;74718;40.778;21.400;2024-03-23T01:40:18;93979.36;;;3.76;57.98
84492;BME280;74718;40.778;21.400;2024-03-23T01:42:57;93984.52;;;3.69;58.30
84492;BME280;74718;40.778;21.400;2024-03-23T01:45:23;93982.39;;;3.59;58.19
84492;BME280;74718;40.778;21.400;2024-03-23T01:47:51;93986.91;;;3.54;57.68
84492;BME280;74718;40.778;21.400;2024-03-23T01:50:18;93991.92;;;3.47;57.90
84492;BME280;74718;40.778;21.400;2024-03-23T01:52:43;93988.23;;;3.50;57.36
84492;BME280;74718;40.778;21.400;2024-03-23T01:55:09;93987.71;;;3.59;57.60
84492;BME280;74718;40.778;21.400;2024-03-23T01:57:35;93987.13;;;3.59;57.92
84492;BME280;74718;40.778;21.400;2024-03-23T02:00:00;93983.27;;;3.56;57.40
84492;BME280;74718;40.778;21.400;2024-03-23T02:02:26;93990.61;;;3.56;58.19
84492;BME280;74718;40.778;21.400;2024-03-23T02:04:51;93991.06;;;3.46;58.32
84492;BME280;74718;40.778;21.400;2024-03-23T02:07:17;93995.95;;;3.42;58.05
84492;BME280;74718;40.778;21.400;2024-03-23T02:09:43;93998.05;;;3.43;57.78
84492;BME280;74718;40.778;21.400;2024-03-23T02:12:09;93994.91;;;3.45;57.89
84492;BME280;74718;40.778;21.400;2024-03-23T02:14:35;93997.98;;;3.45;58.14
84492;BME280;74718;40.778;21.400;2024-03-23T02:17:01;93998.70;;;3.46;57.95
84492;BME280;74718;40.778;21.400;2024-03-23T02:19:26;94000.77;;;3.47;57.57
84492;BME280;74718;40.778;21.400;2024-03-23T02:21:51;93999.85;;;3.50;57.62
84492;BME280;74718;40.778;21.400;2024-03-23T02:24:17;93998.30;;;3.45;58.05
84492;BME280;74718;40.778;21.400;2024-03-23T02:26:42;93998.46;;;3.40;58.30
84492;BME280;74718;40.778;21.400;2024-03-23T02:29:08;94001.39;;;3.33;58.38
84492;BME280;74718;40.778;21.400;2024-03-23T02:31:35;94001.35;;;3.24;58.39
84492;BME280;74718;40.778;21.400;2024-03-23T02:34:01;94001.46;;;3.14;58.81
84492;BME280;74718;40.778;21.400;2024-03-23T02:36:26;94001.98;;;3.10;58.13
84492;BME280;74718;40.778;21.400;2024-03-23T02:38:52;93999.44;;;3.08;58.58
84492;BME280;74718;40.778;21.400;2024-03-23T02:41:17;94000.48;;;3.13;58.75
84492;BME280;74718;40.778;21.400;2024-03-23T02:43:51;94002.45;;;3.17;58.86
84492;BME280;74718;40.778;21.400;2024-03-23T02:46:17;93998.71;;;3.18;58.84
84492;BME280;74718;40.778;21.400;2024-03-23T02:48:42;94001.11;;;3.18;58.80
84492;BME280;74718;40.778;21.400;2024-03-23T02:51:08;94003.16;;;3.18;58.87
84492;BME280;74718;40.778;21.400;2024-03-23T02:53:33;94003.53;;;3.17;58.87
84492;BME280;74718;40.778;21.400;2024-03-23T02:55:59;94004.30;;;3.16;58.99
84492;BME280;74718;40.778;21.400;2024-03-23T02:58:24;94000.52;;;3.15;58.93
84492;BME280;74718;40.778;21.400;2024-03-23T03:00:50;94003.35;;;3.16;58.65
84492;BME280;74718;40.778;21.400;2024-03-23T03:03:15;94003.98;;;3.19;58.58
84492;BME280;74718;40.778;21.400;2024-03-23T03:05:40;94002.41;;;3.22;58.34
84492;BME280;74718;40.778;21.400;2024-03-23T03:08:06;93998.86;;;3.22;58.02
84492;BME280;74718;40.778;21.400;2024-03-23T03:10:32;93998.16;;;3.21;57.95
84492;BME280;74718;40.778;21.400;2024-03-23T03:13:00;93997.26;;;3.24;57.73
84492;BME280;74718;40.778;21.400;2024-03-23T03:15:26;93996.66;;;3.24;58.01
84492;BME280;74718;40.778;21.400;2024-03-23T03:17:51;93995.55;;;3.20;57.57
84492;BME280;74718;40.778;21.400;2024-03-23T03:20:17;93995.33;;;3.12;57.80
84492;BME280;74718;40.778;21.400;2024-03-23T03:22:43;93997.31;;;3.06;57.99
84492;BME280;74718;40.778;21.400;2024-03-23T03:25:09;93998.84;;;2.98;58.20
84492;BME280;74718;40.778;21.400;2024-03-23T03:27:35;93996.48;;;2.96;57.96
84492;BME280;74718;40.778;21.400;2024-03-23T03:30:00;93997.36;;;2.93;58.16
84492;BME280;74718;40.778;21.400;2024-03-23T03:32:30;93999.39;;;2.97;58.38
84492;BME280;74718;40.778;21.400;2024-03-23T03:34:55;93998.58;;;2.98;58.38
84492;BME280;74718;40.778;21.400;2024-03-23T03:37:21;93997.84;;;2.96;58.47
84492;BME280;74718;40.778;21.400;2024-03-23T03:39:46;93998.20;;;2.96;58.43
84492;BME280;74718;40.778;21.400;2024-03-23T03:42:12;93998.80;;;2.99;58.50
84492;BME280;74718;40.778;21.400;2024-03-23T03:44:37;93998.40;;;3.00;58.23
84492;BME280;74718;40.778;21.400;2024-03-23T03:47:03;93997.45;;;3.02;57.83
84492;BME280;74718;40.778;21.400;2024-03-23T03:49:28;93998.86;;;2.99;58.08
84492;BME280;74718;40.778;21.400;2024-03-23T03:51:54;94003.54;;;2.99;57.92
84492;BME280;74718;40.778;21.400;2024-03-23T03:54:20;94005.75;;;2.97;58.07
84492;BME280;74718;40.778;21.400;2024-03-23T03:56:46;94007.42;;;2.95;58.01
84492;BME280;74718;40.778;21.400;2024-03-23T03:59:12;94006.84;;;2.91;57.97
84492;BME280;74718;40.778;21.400;2024-03-23T04:01:37;94010.34;;;2.90;58.28
84492;BME280;74718;40.778;21.400;2024-03-23T04:04:05;94006.06;;;2.89;58.39
84492;BME280;74718;40.778;21.400;2024-03-23T04:06:31;94006.09;;;2.91;58.65
84492;BME280;74718;40.778;21.400;2024-03-23T04:08:58;94006.92;;;2.88;58.56
84492;BME280;74718;40.778;21.400;2024-03-23T04:11:24;94007.65;;;2.90;58.50
84492;BME280;74718;40.778;21.400;2024-03-23T04:13:49;94005.17;;;2.93;58.34
84492;BME280;74718;40.778;21.400;2024-03-23T04:16:27;94006.54;;;3.00;58.10
84492;BME280;74718;40.778;21.400;2024-03-23T04:18:54;94000.82;;;3.01;58.36
84492;BME280;74718;40.778;21.400;2024-03-23T04:21:20;94002.71;;;2.97;58.60
84492;BME280;74718;40.778;21.400;2024-03-23T04:23:45;94005.13;;;2.90;58.55
84492;BME280;74718;40.778;21.400;2024-03-23T04:26:11;94005.59;;;2.85;58.49
84492;BME280;74718;40.778;21.400;2024-03-23T04:28:36;94008.31;;;2.83;58.75
84492;BME280;74718;40.778;21.400;2024-03-23T04:31:05;94010.08;;;2.78;58.32
84492;BME280;74718;40.778;21.400;2024-03-23T04:33:38;94010.92;;;2.75;58.75
84492;BME280;74718;40.778;21.400;2024-03-23T04:36:04;94013.98;;;2.70;58.90
84492;BME280;74718;40.778;21.400;2024-03-23T04:38:30;94016.52;;;2.65;59.01
84492;BME280;74718;40.778;21.400;2024-03-23T04:40:59;94020.11;;;2.63;58.98
84492;BME280;74718;40.778;21.400;2024-03-23T04:43:27;94019.44;;;2.63;58.75
84492;BME280;74718;40.778;21.400;2024-03-23T04:45:53;94025.66;;;2.64;58.82
84492;BME280;74718;40.778;21.400;2024-03-23T04:48:22;94024.90;;;2.65;58.98
84492;BME280;74718;40.778;21.400;2024-03-23T04:50:57;94027.36;;;2.68;58.97
84492;BME280;74718;40.778;21.400;2024-03-23T04:53:24;94025.28;;;2.71;59.03
84492;BME280;74718;40.778;21.400;2024-03-23T04:55:56;94025.30;;;2.71;59.04
84492;BME280;74718;40.778;21.400;2024-03-23T04:58:24;94023.02;;;2.78;58.96
84492;BME280;74718;40.778;21.400;2024-03-23T05:00:56;94022.42;;;2.83;58.82
84492;BME280;74718;40.778;21.400;2024-03-23T05:03:22;94022.79;;;2.90;58.74
84492;BME280;74718;40.778;21.400;2024-03-23T05:05:49;94023.79;;;2.94;58.75
84492;BME280;74718;40.778;21.400;2024-03-23T05:08:15;94022.73;;;3.00;58.64
84492;BME280;74718;40.778;21.400;2024-03-23T05:10:42;94023.36;;;3.08;58.56
84492;BME280;74718;40.778;21.400;2024-03-23T05:13:08;94018.17;;;3.17;58.41
84492;BME280;74718;40.778;21.400;2024-03-23T05:15:34;94017.47;;;3.31;58.27
84492;BME280;74718;40.778;21.400;2024-03-23T05:18:00;94018.60;;;3.46;57.99
84492;BME280;74718;40.778;21.400;2024-03-23T05:20:26;94016.83;;;3.61;57.48
84492;BME280;74718;40.778;21.400;2024-03-23T05:22:51;94015.20;;;3.73;57.14
84492;BME280;74718;40.778;21.400;2024-03-23T05:25:17;94017.76;;;3.95;56.96
84492;BME280;74718;40.778;21.400;2024-03-23T05:27:42;94017.42;;;4.20;56.27
84492;BME280;74718;40.778;21.400;2024-03-23T05:30:08;94018.41;;;4.33;55.68
84492;BME280;74718;40.778;21.400;2024-03-23T05:32:34;94017.73;;;4.39;55.38
84492;BME280;74718;40.778;21.400;2024-03-23T05:35:00;94011.34;;;4.51;54.96
84492;BME280;74718;40.778;21.400;2024-03-23T05:37:26;94016.33;;;4.67;54.77
84492;BME280;74718;40.778;21.400;2024-03-23T05:39:51;94015.59;;;4.85;54.45
84492;BME280;74718;40.778;21.400;2024-03-23T05:42:17;94014.15;;;4.99;54.16
84492;BME280;74718;40.778;21.400;2024-03-23T05:44:46;94009.95;;;5.17;53.95
84492;BME280;74718;40.778;21.400;2024-03-23T05:47:12;94012.14;;;5.38;53.52
84492;BME280;74718;40.778;21.400;2024-03-23T05:49:40;94009.89;;;5.48;53.50
84492;BME280;74718;40.778;21.400;2024-03-23T05:52:09;94012.14;;;5.56;53.40
84492;BME280;74718;40.778;21.400;2024-03-23T05:54:35;94012.13;;;5.64;53.29
84492;BME280;74718;40.778;21.400;2024-03-23T05:57:01;94011.73;;;5.74;53.10
84492;BME280;74718;40.778;21.400;2024-03-23T05:59:27;94009.20;;;5.84;52.68
84492;BME280;74718;40.778;21.400;2024-03-23T06:01:53;94006.25;;;6.01;52.76
84492;BME280;74718;40.778;21.400;2024-03-23T06:04:19;94008.96;;;6.31;52.63
84492;BME280;74718;40.778;21.400;2024-03-23T06:06:44;94007.22;;;6.58;52.22
84492;BME280;74718;40.778;21.400;2024-03-23T06:09:10;94006.67;;;6.82;51.69
84492;BME280;74718;40.778;21.400;2024-03-23T06:11:35;94004.29;;;7.00;51.10
84492;BME280;74718;40.778;21.400;2024-03-23T06:14:01;94006.50;;;7.20;51.06
84492;BME280;74718;40.778;21.400;2024-03-23T06:16:26;94005.84;;;7.36;50.60
84492;BME280;74718;40.778;21.400;2024-03-23T06:18:54;94006.69;;;7.53;50.45
84492;BME280;74718;40.778;21.400;2024-03-23T06:21:20;94007.23;;;7.63;50.39
84492;BME280;74718;40.778;21.400;2024-03-23T06:23:46;94006.23;;;7.71;50.57
84492;BME280;74718;40.778;21.400;2024-03-23T06:26:19;94010.00;;;7.78;51.40
84492;BME280;74718;40.778;21.400;2024-03-23T06:28:45;94012.00;;;7.88;51.76
84492;BME280;74718;40.778;21.400;2024-03-23T06:31:11;94008.33;;;7.96;51.96
84492;BME280;74718;40.778;21.400;2024-03-23T06:33:37;94006.93;;;8.02;52.17
84492;BME280;74718;40.778;21.400;2024-03-23T06:36:04;94005.69;;;8.06;52.62
84492;BME280;74718;40.778;21.400;2024-03-23T06:38:29;94005.67;;;8.12;52.64
84492;BME280;74718;40.778;21.400;2024-03-23T06:40:55;94008.65;;;8.20;52.59
84492;BME280;74718;40.778;21.400;2024-03-23T06:43:20;94006.33;;;8.29;52.67
84492;BME280;74718;40.778;21.400;2024-03-23T06:45:55;94007.98;;;8.42;52.88
84492;BME280;74718;40.778;21.400;2024-03-23T06:48:20;94007.38;;;8.50;53.02
84492;BME280;74718;40.778;21.400;2024-03-23T06:50:46;94009.91;;;8.54;53.13
84492;BME280;74718;40.778;21.400;2024-03-23T06:53:13;94014.99;;;8.63;52.92
84492;BME280;74718;40.778;21.400;2024-03-23T06:55:39;94009.89;;;8.68;53.26
84492;BME280;74718;40.778;21.400;2024-03-23T06:58:05;94008.75;;;8.72;53.20
84492;BME280;74718;40.778;21.400;2024-03-23T07:00:31;94008.88;;;8.79;53.12
84492;BME280;74718;40.778;21.400;2024-03-23T07:02:58;94009.20;;;8.87;53.19
84492;BME280;74718;40.778;21.400;2024-03-23T07:05:23;94008.54;;;8.91;53.15
84492;BME280;74718;40.778;21.400;2024-03-23T07:07:49;94007.43;;;8.96;53.40
84492;BME280;74718;40.778;21.400;2024-03-23T07:10:14;94008.83;;;9.08;53.41
84492;BME280;74718;40.778;21.400;2024-03-23T07:12:40;94006.71;;;9.18;53.76
84492;BME280;74718;40.778;21.400;2024-03-23T07:15:07;94006.99;;;9.22;53.51
84492;BME280;74718;40.778;21.400;2024-03-23T07:17:33;94001.98;;;9.31;53.59
84492;BME280;74718;40.778;21.400;2024-03-23T07:20:03;94003.33;;;9.40;53.53
84492;BME280;74718;40.778;21.400;2024-03-23T07:22:32;94000.42;;;9.46;53.75
84492;BME280;74718;40.778;21.400;2024-03-23T07:25:00;93999.31;;;9.52;53.48
84492;BME280;74718;40.778;21.400;2024-03-23T07:27:26;94003.51;;;9.62;53.41
84492;BME280;74718;40.778;21.400;2024-03-23T07:29:52;94002.77;;;9.68;53.18
84492;BME280;74718;40.778;21.400;2024-03-23T07:32:17;94005.29;;;9.74;53.08
84492;BME280;74718;40.778;21.400;2024-03-23T07:34:43;94002.48;;;9.86;52.98
84492;BME280;74718;40.778;21.400;2024-03-23T07:37:10;94000.35;;;9.96;52.65
84492;BME280;74718;40.778;21.400;2024-03-23T07:39:36;94004.77;;;10.02;52.75
84492;BME280;74718;40.778;21.400;2024-03-23T07:42:02;93995.36;;;10.12;52.98
84492;BME280;74718;40.778;21.400;2024-03-23T07:44:28;93992.54;;;10.27;52.45
84492;BME280;74718;40.778;21.400;2024-03-23T07:46:53;93995.33;;;10.41;52.28
84492;BME280;74718;40.778;21.400;2024-03-23T07:49:18;93991.44;;;10.53;52.37
84492;BME280;74718;40.778;21.400;2024-03-23T07:51:44;93990.17;;;10.62;52.05
84492;BME280;74718;40.778;21.400;2024-03-23T07:54:10;93991.98;;;10.68;51.79
84492;BME280;74718;40.778;21.400;2024-03-23T07:56:35;93985.73;;;10.78;52.04
84492;BME280;74718;40.778;21.400;2024-03-23T07:59:01;93986.42;;;10.92;51.68
84492;BME280;74718;40.778;21.400;2024-03-23T08:01:28;93983.94;;;11.01;51.27
84492;BME280;74718;40.778;21.400;2024-03-23T08:03:54;93983.16;;;11.14;51.09
84492;BME280;74718;40.778;21.400;2024-03-23T08:06:20;93982.00;;;11.30;50.10
84492;BME280;74718;40.778;21.400;2024-03-23T08:08:50;93984.69;;;11.34;49.68
84492;BME280;74718;40.778;21.400;2024-03-23T08:11:18;93984.88;;;11.39;49.76
84492;BME280;74718;40.778;21.400;2024-03-23T08:13:45;93981.17;;;11.47;49.65
84492;BME280;74718;40.778;21.400;2024-03-23T08:16:10;93980.13;;;11.64;49.48
84492;BME280;74718;40.778;21.400;2024-03-23T08:18:36;93978.50;;;11.82;49.03
84492;BME280;74718;40.778;21.400;2024-03-23T08:21:04;93975.76;;;11.87;49.02
84492;BME280;74718;40.778;21.400;2024-03-23T08:23:34;93975.22;;;11.98;48.13
84492;BME280;74718;40.778;21.400;2024-03-23T08:26:07;93971.17;;;12.01;48.32
84492;BME280;74718;40.778;21.400;2024-03-23T08:28:34;93963.81;;;12.13;48.31
84492;BME280;74718;40.778;21.400;2024-03-23T08:31:13;93960.61;;;12.25;47.58
84492;BME280;74718;40.778;21.400;2024-03-23T08:33:39;93960.34;;;12.43;47.29
84492;BME280;74718;40.778;21.400;2024-03-23T08:36:07;93959.80;;;12.53;46.83
84492;BME280;74718;40.778;21.400;2024-03-23T08:38:33;93955.71;;;12.61;46.77
84492;BME280;74718;40.778;21.400;2024-03-23T08:41:04;93948.85;;;12.69;46.61
84492;BME280;74718;40.778;21.400;2024-03-23T08:43:31;93946.24;;;12.77;46.73
84492;BME280;74718;40.778;21.400;2024-03-23T08:46:12;93941.31;;;12.96;46.01
84492;BME280;74718;40.778;21.400;2024-03-23T08:48:43;93937.85;;;13.20;45.61
84492;BME280;74718;40.778;21.400;2024-03-23T08:51:11;93936.66;;;13.33;44.64
84492;BME280;74718;40.778;21.400;2024-03-23T08:53:37;93935.67;;;13.44;44.67
84492;BME280;74718;40.778;21.400;2024-03-23T08:56:04;93930.86;;;13.59;44.29
84492;BME280;74718;40.778;21.400;2024-03-23T08:58:35;93929.08;;;13.71;44.13
84492;BME280;74718;40.778;21.400;2024-03-23T09:01:11;93929.45;;;13.85;43.57
84492;BME280;74718;40.778;21.400;2024-03-23T09:03:40;93924.72;;;14.00;42.49
84492;BME280;74718;40.778;21.400;2024-03-23T09:06:08;93919.98;;;14.15;42.25
84492;BME280;74718;40.778;21.400;2024-03-23T09:08:34;93914.16;;;14.26;42.30
84492;BME280;74718;40.778;21.400;2024-03-23T09:11:05;93911.39;;;14.33;42.14
84492;BME280;74718;40.778;21.400;2024-03-23T09:13:34;93908.77;;;14.37;40.66
84492;BME280;74718;40.778;21.400;2024-03-23T09:16:01;93902.66;;;14.45;40.35
84492;BME280;74718;40.778;21.400;2024-03-23T09:18:27;93900.79;;;14.50;39.27
84492;BME280;74718;40.778;21.400;2024-03-23T09:20:52;93898.59;;;14.47;39.04
84492;BME280;74718;40.778;21.400;2024-03-23T09:23:22;93896.05;;;14.51;39.32
84492;BME280;74718;40.778;21.400;2024-03-23T09:25:47;93886.59;;;14.57;39.13
84492;BME280;74718;40.778;21.400;2024-03-23T09:28:13;93883.33;;;14.69;38.72
84492;BME280;74718;40.778;21.400;2024-03-23T09:30:38;93881.64;;;14.84;38.58
84492;BME280;74718;40.778;21.400;2024-03-23T09:33:11;93876.05;;;15.03;37.77
84492;BME280;74718;40.778;21.400;2024-03-23T09:35:40;93874.92;;;15.18;37.24
84492;BME280;74718;40.778;21.400;2024-03-23T09:38:06;93870.35;;;15.27;37.05
84492;BME280;74718;40.778;21.400;2024-03-23T09:40:40;93874.95;;;15.17;36.29
84492;BME280;74718;40.778;21.400;2024-03-23T09:43:07;93866.45;;;15.15;36.88
84492;BME280;74718;40.778;21.400;2024-03-23T09:45:36;93865.26;;;15.16;37.13
84492;BME280;74718;40.778;21.400;2024-03-23T09:48:04;93858.80;;;15.22;36.93
84492;BME280;74718;40.778;21.400;2024-03-23T09:50:29;93861.39;;;15.25;35.87
84492;BME280;74718;40.778;21.400;2024-03-23T09:52:55;93856.09;;;15.28;35.94
84492;BME280;74718;40.778;21.400;2024-03-23T09:55:21;93856.55;;;15.38;35.83
84492;BME280;74718;40.778;21.400;2024-03-23T09:57:46;93853.01;;;15.39;35.44
84492;BME280;74718;40.778;21.400;2024-03-23T10:00:12;93851.92;;;15.46;36.13
84492;BME280;74718;40.778;21.400;2024-03-23T10:02:38;93842.37;;;15.50;35.77
84492;BME280;74718;40.778;21.400;2024-03-23T10:05:04;93842.09;;;15.58;35.56
84492;BME280;74718;40.778;21.400;2024-03-23T10:07:30;93839.56;;;15.55;35.84
84492;BME280;74718;40.778;21.400;2024-03-23T10:09:56;93840.21;;;15.47;35.85
84492;BME280;74718;40.778;21.400;2024-03-23T10:12:23;93831.16;;;15.61;36.74
84492;BME280;74718;40.778;21.400;2024-03-23T10:14:50;93827.70;;;15.79;35.93
84492;BME280;74718;40.778;21.400;2024-03-23T10:17:18;93824.10;;;15.87;34.58
84492;BME280;74718;40.778;21.400;2024-03-23T10:19:47;93822.95;;;15.93;34.27
84492;BME280;74718;40.778;21.400;2024-03-23T10:22:19;93819.11;;;16.10;33.99
84492;BME280;74718;40.778;21.400;2024-03-23T10:24:45;93818.23;;;16.15;33.91
84492;BME280;74718;40.778;21.400;2024-03-23T10:27:21;93819.13;;;16.12;33.35
84492;BME280;74718;40.778;21.400;2024-03-23T10:29:50;93818.92;;;16.09;33.59
84492;BME280;74718;40.778;21.400;2024-03-23T10:32:16;93813.55;;;16.18;32.94
84492;BME280;74718;40.778;21.400;2024-03-23T10:34:42;93805.84;;;16.24;32.76
84492;BME280;74718;40.778;21.400;2024-03-23T10:37:09;93808.48;;;16.32;32.62
84492;BME280;74718;40.778;21.400;2024-03-23T10:39:37;93801.23;;;16.29;32.22
84492;BME280;74718;40.778;21.400;2024-03-23T10:42:05;93798.30;;;16.33;31.75
84492;BME280;74718;40.778;21.400;2024-03-23T10:44:31;93798.08;;;16.43;31.51
84492;BME280;74718;40.778;21.400;2024-03-23T10:47:01;93793.73;;;16.54;30.79
84492;BME280;74718;40.778;21.400;2024-03-23T10:49:35;93788.57;;;16.61;29.84
84492;BME280;74718;40.778;21.400;2024-03-23T10:52:04;93783.55;;;16.56;29.18
84492;BME280;74718;40.778;21.400;2024-03-23T10:54:32;93781.45;;;16.56;29.50
84492;BME280;74718;40.778;21.400;2024-03-23T10:57:17;93776.05;;;16.61;29.41
84492;BME280;74718;40.778;21.400;2024-03-23T10:59:45;93767.95;;;16.70;29.20
84492;BME280;74718;40.778;21.400;2024-03-23T11:02:20;93766.00;;;16.71;28.35
84492;BME280;74718;40.778;21.400;2024-03-23T11:04:47;93761.34;;;16.69;28.34
84492;BME280;74718;40.778;21.400;2024-03-23T11:07:30;93757.77;;;16.72;28.72
84492;BME280;74718;40.778;21.400;2024-03-23T11:09:57;93754.92;;;16.88;28.90
84492;BME280;74718;40.778;21.400;2024-03-23T11:15:11;93746.83;;;16.98;28.40
84492;BME280;74718;40.778;21.400;2024-03-23T11:17:38;93740.27;;;17.03;27.84
84492;BME280;74718;40.778;21.400;2024-03-23T11:20:05;93733.27;;;17.05;28.42
84492;BME280;74718;40.778;21.400;2024-03-23T11:22:41;93734.27;;;17.09;28.27
84492;BME280;74718;40.778;21.400;2024-03-23T11:27:36;93725.07;;;17.31;27.39
84492;BME280;74718;40.778;21.400;2024-03-23T11:30:12;93720.87;;;17.22;26.37
84492;BME280;74718;40.778;21.400;2024-03-23T11:32:38;93713.42;;;17.20;27.65
84492;BME280;74718;40.778;21.400;2024-03-23T11:35:04;93708.86;;;17.26;28.08
84492;BME280;74718;40.778;21.400;2024-03-23T11:37:30;93704.14;;;17.31;27.96
84492;BME280;74718;40.778;21.400;2024-03-23T11:39:56;93705.31;;;17.28;27.87
84492;BME280;74718;40.778;21.400;2024-03-23T11:42:21;93701.60;;;17.31;27.62
84492;BME280;74718;40.778;21.400;2024-03-23T11:44:47;93698.70;;;17.33;27.76
84492;BME280;74718;40.778;21.400;2024-03-23T11:47:15;93694.98;;;17.40;27.66
84492;BME280;74718;40.778;21.400;2024-03-23T11:49:41;93692.21;;;17.43;27.75
84492;BME280;74718;40.778;21.400;2024-03-23T11:52:07;93688.89;;;17.39;27.72
84492;BME280;74718;40.778;21.400;2024-03-23T11:54:33;93685.20;;;17.39;27.76
84492;BME280;74718;40.778;21.400;2024-03-23T11:57:00;93681.30;;;17.47;27.55
84492;BME280;74718;40.778;21.400;2024-03-23T11:59:36;93678.38;;;17.54;27.59
84492;BME280;74718;40.778;21.400;2024-03-23T12:02:10;93665.09;;;17.59;27.20
84492;BME280;74718;40.778;21.400;2024-03-23T12:04:37;93657.58;;;17.58;27.62
84492;BME280;74718;40.778;21.400;2024-03-23T12:07:17;93655.48;;;17.57;27.80
84492;BME280;74718;40.778;21.400;2024-03-23T12:10:07;93654.79;;;17.55;27.26
84492;BME280;74718;40.778;21.400;2024-03-23T12:12:32;93650.77;;;17.49;27.43
84492;BME280;74718;40.778;21.400;2024-03-23T12:15:03;93647.69;;;17.44;27.26
84492;BME280;74718;40.778;21.400;2024-03-23T12:17:30;93642.10;;;17.39;27.67
84492;BME280;74718;40.778;21.400;2024-03-23T12:19:55;93640.22;;;17.45;28.10
84492;BME280;74718;40.778;21.400;2024-03-23T12:22:22;93639.38;;;17.52;28.02
84492;BME280;74718;40.778;21.400;2024-03-23T12:24:48;93631.77;;;17.59;27.67
84492;BME280;74718;40.778;21.400;2024-03-23T12:27:13;93633.84;;;17.57;27.93
84492;BME280;74718;40.778;21.400;2024-03-23T12:29:40;93629.83;;;17.57;27.67
84492;BME280;74718;40.778;21.400;2024-03-23T12:32:08;93624.71;;;17.64;27.66
84492;BME280;74718;40.778;21.400;2024-03-23T12:34:33;93621.68;;;17.61;27.71
84492;BME280;74718;40.778;21.400;2024-03-23T12:36:59;93620.10;;;17.63;27.86
84492;BME280;74718;40.778;21.400;2024-03-23T12:39:24;93617.21;;;17.71;27.80
84492;BME280;74718;40.778;21.400;2024-03-23T12:41:50;93615.05;;;17.76;27.84
84492;BME280;74718;40.778;21.400;2024-03-23T12:44:17;93613.36;;;17.82;27.79
84492;BME280;74718;40.778;21.400;2024-03-23T12:46:42;93613.07;;;17.76;27.24
84492;BME280;74718;40.778;21.400;2024-03-23T12:49:08;93605.53;;;17.74;27.11
84492;BME280;74718;40.778;21.400;2024-03-23T12:51:33;93600.96;;;17.72;27.33
84492;BME280;74718;40.778;21.400;2024-03-23T12:53:59;93597.83;;;17.72;27.62
84492;BME280;74718;40.778;21.400;2024-03-23T12:56:25;93592.60;;;17.71;27.65
84492;BME280;74718;40.778;21.400;2024-03-23T12:58:50;93590.18;;;17.71;27.92
84492;BME280;74718;40.778;21.400;2024-03-23T13:01:20;93594.13;;;17.73;27.88
84492;BME280;74718;40.778;21.400;2024-03-23T13:03:47;93587.84;;;17.70;27.68
84492;BME280;74718;40.778;21.400;2024-03-23T13:06:13;93579.95;;;17.65;27.42
84492;BME280;74718;40.778;21.400;2024-03-23T13:08:38;93579.48;;;17.54;28.15
84492;BME280;74718;40.778;21.400;2024-03-23T13:11:06;93576.34;;;17.56;28.20
84492;BME280;74718;40.778;21.400;2024-03-23T13:13:37;93570.63;;;17.48;27.87
84492;BME280;74718;40.778;21.400;2024-03-23T13:16:03;93565.43;;;17.43;28.38
84492;BME280;74718;40.778;21.400;2024-03-23T13:18:30;93563.34;;;17.32;28.35
84492;BME280;74718;40.778;21.400;2024-03-23T13:20:55;93560.55;;;17.15;28.09
84492;BME280;74718;40.778;21.400;2024-03-23T13:23:21;93560.40;;;17.05;28.38
84492;BME280;74718;40.778;21.400;2024-03-23T13:25:53;93555.45;;;17.03;28.59
84492;BME280;74718;40.778;21.400;2024-03-23T13:28:20;93551.71;;;17.01;28.57
84492;BME280;74718;40.778;21.400;2024-03-23T13:30:53;93550.02;;;16.98;28.61
84492;BME280;74718;40.778;21.400;2024-03-23T13:33:19;93546.90;;;16.94;29.15
84492;BME280;74718;40.778;21.400;2024-03-23T13:35:54;93544.20;;;16.93;29.14
84492;BME280;74718;40.778;21.400;2024-03-23T13:38:22;93542.53;;;16.88;29.04
84492;BME280;74718;40.778;21.400;2024-03-23T13:40:55;93536.98;;;16.93;29.01
84492;BME280;74718;40.778;21.400;2024-03-23T13:43:22;93538.92;;;16.98;28.94
84492;BME280;74718;40.778;21.400;2024-03-23T13:45:50;93533.75;;;17.00;28.77
84492;BME280;74718;40.778;21.400;2024-03-23T13:48:19;93531.36;;;16.92;28.80
84492;BME280;74718;40.778;21.400;2024-03-23T13:50:47;93532.56;;;16.79;29.11
84492;BME280;74718;40.778;21.400;2024-03-23T13:53:14;93530.53;;;16.76;29.11